createdAt,value
2022-12-04T00:01:18.822Z,100.00
2022-12-04T00:04:21.793Z,100.00
2022-12-04T00:07:24.458Z,100.00
2022-12-04T00:10:27.225Z,100.00
2022-12-04T00:13:29.885Z,100.00
2022-12-04T00:16:32.760Z,100.00
2022-12-04T00:19:36.644Z,100.00
2022-12-04T00:22:39.482Z,100.00
2022-12-04T00:25:41.997Z,100.00
2022-12-04T00:28:45.342Z,100.00
2022-12-04T00:31:47.908Z,100.00
2022-12-04T00:34:53.652Z,100.00
2022-12-04T00:37:56.089Z,100.00
2022-12-04T00:41:00.806Z,100.00
2022-12-04T00:44:04.018Z,100.00
2022-12-04T00:47:06.818Z,100.00
2022-12-04T00:50:10.276Z,100.00
2022-12-04T00:53:13.170Z,100.00
2022-12-04T00:56:22.821Z,100.00
2022-12-04T00:59:26.090Z,100.00
2022-12-04T01:02:30.865Z,100.00
2022-12-04T01:05:39.740Z,100.00
2022-12-04T01:08:42.120Z,100.00
2022-12-04T01:11:44.850Z,100.00
2022-12-04T01:14:47.342Z,100.00
2022-12-04T01:17:50.649Z,100.00
2022-12-04T01:20:53.351Z,100.00
2022-12-04T01:23:56.882Z,100.00
2022-12-04T01:26:59.313Z,100.00
2022-12-04T01:30:02.797Z,100.00
2022-12-04T01:33:06.152Z,100.00
2022-12-04T01:36:12.215Z,100.00
2022-12-04T01:39:14.695Z,100.00
2022-12-04T01:42:17.452Z,100.00
2022-12-04T01:45:39.843Z,100.00
2022-12-04T01:48:54.417Z,100.00
2022-12-04T01:52:04.680Z,100.00
2022-12-04T01:55:08.955Z,100.00
2022-12-04T01:58:11.629Z,100.00
2022-12-04T02:01:14.378Z,100.00
2022-12-04T02:04:17.270Z,100.00
2022-12-04T02:07:19.911Z,100.00
2022-12-04T02:10:32.628Z,100.00
2022-12-04T02:13:44.114Z,100.00
2022-12-04T02:17:28.253Z,100.00
2022-12-04T02:21:07.984Z,100.00
2022-12-04T02:24:45.342Z,100.00
2022-12-04T02:28:08.229Z,100.00
2022-12-04T02:31:18.306Z,100.00
2022-12-04T02:34:33.898Z,100.00
2022-12-04T02:37:43.786Z,100.00
2022-12-04T02:41:08.789Z,100.00
2022-12-04T02:44:21.847Z,100.00
2022-12-04T02:47:26.166Z,100.00
2022-12-04T02:50:31.340Z,100.00
2022-12-04T02:53:38.474Z,100.00
2022-12-04T02:56:44.247Z,100.00
2022-12-04T02:59:49.027Z,100.00
2022-12-04T03:03:05.944Z,100.00
2022-12-04T03:06:11.664Z,100.00
2022-12-04T03:09:17.920Z,100.00
2022-12-04T03:12:47.150Z,100.00
2022-12-04T03:16:08.529Z,100.00
2022-12-04T03:19:17.270Z,100.00
2022-12-04T03:22:22.111Z,100.00
2022-12-04T03:25:32.118Z,100.00
2022-12-04T03:28:50.026Z,100.00
2022-12-04T03:32:14.589Z,100.00
2022-12-04T03:35:26.299Z,100.00
2022-12-04T03:38:46.187Z,100.00
2022-12-04T03:42:17.144Z,100.00
2022-12-04T03:45:29.033Z,100.00
2022-12-04T03:48:38.175Z,100.00
2022-12-04T03:52:04.670Z,100.00
2022-12-04T03:55:18.210Z,100.00
2022-12-04T03:58:27.088Z,100.00
2022-12-04T04:01:38.727Z,100.00
2022-12-04T04:04:44.905Z,100.00
2022-12-04T04:07:55.030Z,100.00
2022-12-04T04:11:13.314Z,100.00
2022-12-04T04:15:00.648Z,100.00
2022-12-04T04:18:22.226Z,100.00
2022-12-04T04:21:49.581Z,100.00
2022-12-04T04:24:57.764Z,100.00
2022-12-04T04:28:00.384Z,100.00
2022-12-04T04:31:22.074Z,100.00
2022-12-04T04:34:49.746Z,100.00
2022-12-04T04:38:01.297Z,100.00
2022-12-04T04:41:25.135Z,100.00
2022-12-04T04:44:39.012Z,100.00
2022-12-04T04:47:53.115Z,100.00
2022-12-04T04:50:57.932Z,100.00
2022-12-04T04:54:06.965Z,100.00
2022-12-04T04:57:09.703Z,100.00
2022-12-04T05:00:16.589Z,100.00
2022-12-04T05:03:19.337Z,100.00
2022-12-04T05:06:21.915Z,100.00
2022-12-04T05:09:26.359Z,100.00
2022-12-04T05:12:28.858Z,100.00
2022-12-04T05:15:31.582Z,100.00
2022-12-04T05:18:35.796Z,100.00
2022-12-04T05:21:38.507Z,100.00
2022-12-04T05:24:40.954Z,100.00
2022-12-04T05:27:43.759Z,100.00
2022-12-04T05:30:46.283Z,100.00
2022-12-04T05:33:48.970Z,100.00
2022-12-04T05:36:52.440Z,100.00
2022-12-04T05:39:55.609Z,100.00
2022-12-04T05:42:58.357Z,100.00
2022-12-04T05:46:06.551Z,100.00
2022-12-04T05:49:09.068Z,100.00
2022-12-04T05:52:12.061Z,100.00
2022-12-04T05:55:14.522Z,100.00
2022-12-04T05:58:17.440Z,100.00
2022-12-04T06:01:23.226Z,100.00
2022-12-04T06:04:26.023Z,100.00
2022-12-04T06:07:28.613Z,100.00
2022-12-04T06:10:31.409Z,100.00
2022-12-04T06:13:33.803Z,100.00
2022-12-04T06:16:39.910Z,100.00
2022-12-04T06:19:42.585Z,100.00
2022-12-04T06:22:45.331Z,100.00
2022-12-04T06:25:47.836Z,100.00
2022-12-04T06:28:53.891Z,100.00
2022-12-04T06:31:56.631Z,100.00
2022-12-04T06:34:59.422Z,100.00
2022-12-04T06:38:01.901Z,100.00
2022-12-04T06:41:08.960Z,100.00
2022-12-04T06:44:11.440Z,100.00
2022-12-04T06:47:14.250Z,100.00
2022-12-04T06:50:16.751Z,100.00
2022-12-04T06:53:21.719Z,100.00
2022-12-04T06:56:26.517Z,100.00
2022-12-04T06:59:29.594Z,100.00
2022-12-04T07:02:32.118Z,100.00
2022-12-04T07:05:34.891Z,100.00
2022-12-04T07:08:37.659Z,100.00
2022-12-04T07:11:42.109Z,100.00
2022-12-04T07:14:44.566Z,100.00
2022-12-04T07:17:47.296Z,100.00
2022-12-04T07:20:49.877Z,100.00
2022-12-04T07:23:55.053Z,100.00
2022-12-04T07:26:57.543Z,100.00
2022-12-04T07:30:00.781Z,100.00
2022-12-04T07:33:03.700Z,100.00
2022-12-04T07:36:08.752Z,100.00
2022-12-04T07:39:11.313Z,100.00
2022-12-04T07:42:14.100Z,100.00
2022-12-04T07:45:16.834Z,100.00
2022-12-04T07:48:19.618Z,100.00
2022-12-04T07:51:25.084Z,100.00
2022-12-04T07:54:29.435Z,100.00
2022-12-04T07:57:31.836Z,100.00
2022-12-04T08:00:34.620Z,100.00
2022-12-04T08:03:42.143Z,100.00
2022-12-04T08:06:47.806Z,100.00
2022-12-04T08:09:50.525Z,100.00
2022-12-04T08:12:53.169Z,100.00
2022-12-04T08:15:55.971Z,100.00
2022-12-04T08:19:00.079Z,100.00
2022-12-04T08:22:02.788Z,100.00
2022-12-04T08:25:05.676Z,100.00
2022-12-04T08:28:08.713Z,100.00
2022-12-04T08:31:14.705Z,100.00
2022-12-04T08:34:17.937Z,100.00
2022-12-04T08:37:20.334Z,100.00
2022-12-04T08:40:27.226Z,100.00
2022-12-04T08:43:30.171Z,100.00
2022-12-04T08:46:33.223Z,100.00
2022-12-04T08:49:36.181Z,100.00
2022-12-04T08:52:41.022Z,100.00
2022-12-04T08:55:43.484Z,100.00
2022-12-04T08:58:46.285Z,100.00
2022-12-04T09:01:51.828Z,100.00
2022-12-04T09:04:54.703Z,100.00
2022-12-04T09:07:57.537Z,100.00
2022-12-04T09:11:22.844Z,100.00
2022-12-04T09:14:26.574Z,100.00
2022-12-04T09:17:29.303Z,100.00
2022-12-04T09:20:31.783Z,100.00
2022-12-04T09:23:35.766Z,100.00
2022-12-04T09:26:38.421Z,100.00
2022-12-04T09:29:41.514Z,100.00
2022-12-04T09:32:44.533Z,100.00
2022-12-04T09:35:47.376Z,100.00
2022-12-04T09:38:52.177Z,100.00
2022-12-04T09:42:09.273Z,100.00
2022-12-04T09:45:18.738Z,100.00
2022-12-04T09:48:26.675Z,100.00
2022-12-04T09:51:31.463Z,100.00
2022-12-04T09:54:40.652Z,100.00
2022-12-04T09:57:46.749Z,100.00
2022-12-04T10:00:51.904Z,100.00
2022-12-04T10:03:58.682Z,100.00
2022-12-04T10:07:15.996Z,100.00
2022-12-04T10:10:23.031Z,100.00
2022-12-04T10:13:54.432Z,100.00
2022-12-04T10:17:37.532Z,100.00
2022-12-04T10:20:58.538Z,100.00
2022-12-04T10:24:28.866Z,100.00
2022-12-04T10:27:41.320Z,100.00
2022-12-04T10:30:45.698Z,100.00
2022-12-04T10:34:05.587Z,100.00
2022-12-04T10:37:14.019Z,100.00
2022-12-04T10:40:23.086Z,100.00
2022-12-04T10:43:43.001Z,100.00
2022-12-04T10:46:46.994Z,100.00
2022-12-04T10:50:02.327Z,99.48
2022-12-04T10:53:08.220Z,97.89
2022-12-04T10:56:18.059Z,97.51
2022-12-04T10:59:21.444Z,96.42
2022-12-04T11:02:28.853Z,97.78
2022-12-04T11:06:02.265Z,96.72
2022-12-04T11:09:05.074Z,95.41
2022-12-04T11:12:17.293Z,95.64
2022-12-04T11:15:20.139Z,94.34
2022-12-04T11:18:27.043Z,94.64
2022-12-04T11:21:32.204Z,92.99
2022-12-04T11:24:37.806Z,92.62
2022-12-04T11:27:40.652Z,93.00
2022-12-04T11:30:49.398Z,92.91
2022-12-04T11:33:52.083Z,92.85
2022-12-04T11:36:57.114Z,92.26
2022-12-04T11:40:03.438Z,92.47
2022-12-04T11:43:14.290Z,91.68
2022-12-04T11:46:22.492Z,92.31
2022-12-04T11:49:26.985Z,91.93
2022-12-04T11:52:56.086Z,91.70
2022-12-04T11:56:04.828Z,91.61
2022-12-04T11:59:26.204Z,90.69
2022-12-04T12:02:51.231Z,90.71
2022-12-04T12:05:59.918Z,89.80
2022-12-04T12:09:05.567Z,90.90
2022-12-04T12:12:22.942Z,91.43
2022-12-04T12:15:56.477Z,91.26
2022-12-04T12:19:14.083Z,90.34
2022-12-04T12:22:36.434Z,90.52
2022-12-04T12:25:52.169Z,90.05
2022-12-04T12:29:06.849Z,90.38
2022-12-04T12:32:28.467Z,90.11
2022-12-04T12:35:39.725Z,90.59
2022-12-04T12:38:51.024Z,91.14
2022-12-04T12:41:58.000Z,90.45
2022-12-04T12:45:28.681Z,89.75
2022-12-04T12:48:56.587Z,90.52
2022-12-04T12:52:37.213Z,89.44
2022-12-04T12:55:47.879Z,89.88
2022-12-04T12:58:56.122Z,89.50
2022-12-04T13:02:06.486Z,88.86
2022-12-04T13:05:13.274Z,89.51
2022-12-04T13:08:29.861Z,89.12
2022-12-04T13:11:33.225Z,88.20
2022-12-04T13:14:36.096Z,87.29
2022-12-04T13:17:39.858Z,87.58
2022-12-04T13:20:54.688Z,88.46
2022-12-04T13:24:48.840Z,89.37
2022-12-04T13:28:17.944Z,88.70
2022-12-04T13:31:27.112Z,89.00
2022-12-04T13:35:17.351Z,89.74
2022-12-04T13:38:58.521Z,90.88
2022-12-04T13:42:04.151Z,92.16
2022-12-04T13:45:12.175Z,93.31
2022-12-04T13:48:35.234Z,93.94
2022-12-04T13:51:42.543Z,94.90
2022-12-04T13:55:00.042Z,95.30
2022-12-04T13:58:05.720Z,95.66
2022-12-04T14:01:24.989Z,96.50
2022-12-04T14:04:52.291Z,96.31
2022-12-04T14:08:07.576Z,96.01
2022-12-04T14:11:17.933Z,96.86
2022-12-04T14:14:44.986Z,97.55
2022-12-04T14:18:00.906Z,97.22
2022-12-04T14:21:06.226Z,98.21
2022-12-04T14:24:37.052Z,98.89
2022-12-04T14:27:42.638Z,99.85
2022-12-04T14:31:05.254Z,100.00
2022-12-04T14:34:22.612Z,100.00
2022-12-04T14:37:35.971Z,100.00
2022-12-04T14:40:48.335Z,100.00
2022-12-04T14:43:51.641Z,100.00
2022-12-04T14:46:57.375Z,100.00
2022-12-04T14:50:28.256Z,100.00
2022-12-04T14:53:54.258Z,100.00
2022-12-04T14:57:20.273Z,100.00
2022-12-04T15:00:24.509Z,100.00
2022-12-04T15:03:43.590Z,100.00
2022-12-04T15:06:49.214Z,100.00
2022-12-04T15:10:36.362Z,100.00
2022-12-04T15:13:39.433Z,100.00
2022-12-04T15:16:43.429Z,100.00
2022-12-04T15:19:46.144Z,100.00
2022-12-04T15:22:50.307Z,100.00
2022-12-04T15:25:55.858Z,100.00
2022-12-04T15:29:03.014Z,100.00
2022-12-04T15:32:11.215Z,100.00
2022-12-04T15:35:20.595Z,100.00
2022-12-04T15:38:23.444Z,100.00
2022-12-04T15:41:34.048Z,100.00
2022-12-04T15:44:36.757Z,100.00
2022-12-04T15:47:42.143Z,100.00
2022-12-04T15:50:56.140Z,100.00
2022-12-04T15:53:59.158Z,100.00
2022-12-04T15:57:05.795Z,100.00
2022-12-04T16:00:28.686Z,100.00
2022-12-04T16:03:46.811Z,100.00
2022-12-04T16:06:51.293Z,100.00
2022-12-04T16:10:03.967Z,100.00
2022-12-04T16:13:06.739Z,100.00
2022-12-04T16:16:16.047Z,100.00
2022-12-04T16:19:24.134Z,100.00
2022-12-04T16:22:27.367Z,100.00
2022-12-04T16:25:32.733Z,100.00
2022-12-04T16:28:35.472Z,100.00
2022-12-04T16:31:38.721Z,100.00
2022-12-04T16:34:41.554Z,100.00
2022-12-04T16:37:44.071Z,100.00
2022-12-04T16:40:47.816Z,100.00
2022-12-04T16:43:56.150Z,100.00
2022-12-04T16:46:59.061Z,100.00
2022-12-04T16:50:01.597Z,100.00
2022-12-04T16:53:04.795Z,100.00
2022-12-04T16:56:08.926Z,100.00
2022-12-04T16:59:12.522Z,100.00
2022-12-04T17:02:26.016Z,100.00
2022-12-04T17:05:30.336Z,100.00
2022-12-04T17:08:33.119Z,100.00
2022-12-04T17:11:36.185Z,100.00
2022-12-04T17:14:39.075Z,100.00
2022-12-04T17:17:41.821Z,100.00
2022-12-04T17:20:44.656Z,100.00
2022-12-04T17:23:50.514Z,100.00
2022-12-04T17:26:52.944Z,100.00
2022-12-04T17:29:56.303Z,100.00
2022-12-04T17:32:59.032Z,100.00
2022-12-04T17:36:03.478Z,100.00
2022-12-04T17:39:08.053Z,100.00
2022-12-04T17:42:10.795Z,100.00
2022-12-04T17:45:14.407Z,100.00
2022-12-04T17:48:17.177Z,100.00
2022-12-04T17:51:23.066Z,100.00
2022-12-04T17:54:25.814Z,100.00
2022-12-04T17:57:28.681Z,100.00
2022-12-04T18:00:31.771Z,100.00
2022-12-04T18:03:35.066Z,100.00
2022-12-04T18:06:39.821Z,100.00
2022-12-04T18:09:42.793Z,100.00
2022-12-04T18:12:45.289Z,100.00
2022-12-04T18:15:48.038Z,100.00
2022-12-04T18:18:53.206Z,100.00
2022-12-04T18:21:56.910Z,100.00
2022-12-04T18:25:00.593Z,100.00
2022-12-04T18:28:03.415Z,100.00
2022-12-04T18:31:07.389Z,100.00
2022-12-04T18:34:10.926Z,100.00
2022-12-04T18:37:13.422Z,100.00
2022-12-04T18:40:16.296Z,100.00
2022-12-04T18:43:18.960Z,100.00
2022-12-04T18:46:22.255Z,100.00
2022-12-04T18:49:24.840Z,100.00
2022-12-04T18:52:27.636Z,100.00
2022-12-04T18:55:30.228Z,100.00
2022-12-04T18:58:33.421Z,100.00
2022-12-04T19:01:36.215Z,100.00
2022-12-04T19:04:39.178Z,100.00
2022-12-04T19:07:41.737Z,100.00
2022-12-04T19:10:44.599Z,100.00
2022-12-04T19:13:47.152Z,100.00
2022-12-04T19:16:50.400Z,100.00
2022-12-04T19:19:52.918Z,100.00
2022-12-04T19:22:57.616Z,100.00
2022-12-04T19:26:00.688Z,100.00
2022-12-04T19:29:05.154Z,100.00
2022-12-04T19:32:09.102Z,100.00
2022-12-04T19:35:12.129Z,100.00
2022-12-04T19:38:14.575Z,100.00
2022-12-04T19:41:22.840Z,100.00
2022-12-04T19:47:48.136Z,100.00
2022-12-04T19:50:50.718Z,100.00
2022-12-04T19:53:55.206Z,100.00
2022-12-04T19:56:57.798Z,100.00
2022-12-04T20:00:01.104Z,100.00
2022-12-04T20:03:14.269Z,100.00
2022-12-04T20:06:19.360Z,100.00
2022-12-04T20:09:22.505Z,100.00
2022-12-04T20:12:25.358Z,100.00
2022-12-04T20:15:27.949Z,100.00
2022-12-04T20:18:31.327Z,100.00
2022-12-04T20:21:34.253Z,100.00
2022-12-04T20:24:37.068Z,100.00
2022-12-04T20:27:39.581Z,100.00
2022-12-04T20:30:44.645Z,100.00
2022-12-04T20:33:49.260Z,100.00
2022-12-04T20:36:52.218Z,100.00
2022-12-04T20:39:54.937Z,100.00
2022-12-04T20:42:58.207Z,100.00
2022-12-04T20:46:00.859Z,100.00
2022-12-04T20:49:07.267Z,100.00
2022-12-04T20:52:11.107Z,100.00
2022-12-04T20:55:13.820Z,100.00
2022-12-04T20:58:16.329Z,100.00
2022-12-04T21:01:19.520Z,100.00
2022-12-04T21:04:22.463Z,100.00
2022-12-04T21:07:25.226Z,100.00
2022-12-04T21:10:27.724Z,100.00
2022-12-04T21:13:49.295Z,100.00
2022-12-04T21:16:52.016Z,100.00
2022-12-04T21:19:55.024Z,100.00
2022-12-04T21:22:57.693Z,100.00
2022-12-04T21:26:00.400Z,100.00
2022-12-04T21:29:04.606Z,100.00
2022-12-04T21:32:07.413Z,100.00
2022-12-04T21:35:09.953Z,100.00
2022-12-04T21:38:12.650Z,100.00
2022-12-04T21:41:35.390Z,100.00
2022-12-04T21:44:38.232Z,100.00
2022-12-04T21:47:40.613Z,100.00
2022-12-04T21:50:43.342Z,100.00
2022-12-04T21:53:45.893Z,100.00
2022-12-04T21:56:48.777Z,100.00
2022-12-04T21:59:52.318Z,100.00
2022-12-04T22:02:55.265Z,100.00
2022-12-04T22:05:59.917Z,100.00
2022-12-04T22:09:07.503Z,100.00
2022-12-04T22:12:33.293Z,100.00
2022-12-04T22:15:39.450Z,100.00
2022-12-04T22:18:42.838Z,100.00
2022-12-04T22:21:45.377Z,100.00
2022-12-04T22:24:48.083Z,100.00
2022-12-04T22:27:53.076Z,100.00
2022-12-04T22:30:56.174Z,100.00
2022-12-04T22:34:00.944Z,100.00
2022-12-04T22:37:03.612Z,100.00
2022-12-04T22:40:07.205Z,100.00
2022-12-04T22:43:10.044Z,100.00
2022-12-04T22:46:13.084Z,100.00
2022-12-04T22:49:16.601Z,100.00
2022-12-04T22:52:19.262Z,100.00
2022-12-04T22:55:21.983Z,100.00
2022-12-04T22:58:24.544Z,100.00
2022-12-04T23:01:29.306Z,100.00
2022-12-04T23:04:31.985Z,100.00
2022-12-04T23:07:34.856Z,100.00
2022-12-04T23:10:38.571Z,100.00
2022-12-04T23:13:42.073Z,100.00
2022-12-04T23:16:44.879Z,100.00
2022-12-04T23:19:47.881Z,100.00
2022-12-04T23:22:54.713Z,100.00
2022-12-04T23:25:57.441Z,100.00
2022-12-04T23:29:01.657Z,100.00
2022-12-04T23:32:04.679Z,100.00
2022-12-04T23:35:07.795Z,100.00
2022-12-04T23:38:10.632Z,100.00
2022-12-04T23:41:23.261Z,100.00
2022-12-04T23:44:25.985Z,100.00
2022-12-04T23:47:28.521Z,100.00
2022-12-04T23:50:31.405Z,100.00
2022-12-04T23:53:34.518Z,100.00
2022-12-04T23:56:37.391Z,100.00
2022-12-04T23:59:40.014Z,100.00
